createdAt,value
2018-06-24T00:00:19.773Z,4.00
2018-06-24T00:02:46.229Z,3.00
2018-06-24T00:05:12.687Z,4.00
2018-06-24T00:07:39.477Z,3.20
2018-06-24T00:10:05.929Z,1.00
2018-06-24T00:12:32.388Z,2.20
2018-06-24T00:14:59.453Z,4.80
2018-06-24T00:17:25.912Z,3.00
2018-06-24T00:19:52.368Z,4.00
2018-06-24T00:22:19.306Z,1.00
2018-06-24T00:24:45.760Z,4.00
2018-06-24T00:27:12.288Z,3.00
2018-06-24T00:29:39.215Z,3.00
2018-06-24T00:32:05.676Z,3.80
2018-06-24T00:34:32.150Z,3.80
2018-06-24T00:36:58.928Z,0.60
2018-06-24T00:39:25.448Z,1.00
2018-06-24T00:41:51.941Z,3.40
2018-06-24T00:44:18.833Z,4.00
2018-06-24T00:46:45.379Z,4.00
2018-06-24T00:49:11.979Z,1.40
2018-06-24T00:51:39.978Z,1.00
2018-06-24T00:54:07.252Z,3.20
2018-06-24T00:56:33.743Z,1.40
2018-06-24T00:59:00.498Z,3.00
2018-06-24T01:01:26.985Z,1.00
2018-06-24T01:03:53.564Z,1.40
2018-06-24T01:06:21.411Z,3.00
2018-06-24T01:08:47.994Z,3.40
2018-06-24T01:11:14.465Z,1.00
2018-06-24T01:13:41.398Z,3.00
2018-06-24T01:16:07.862Z,3.00
2018-06-24T01:18:34.339Z,1.80
2018-06-24T01:21:01.280Z,1.80
2018-06-24T01:23:27.764Z,3.60
2018-06-24T01:25:54.213Z,2.20
2018-06-24T01:28:21.586Z,3.20
2018-06-24T01:30:48.942Z,3.00
2018-06-24T01:33:15.419Z,2.60
2018-06-24T01:35:42.235Z,1.80
2018-06-24T01:38:08.708Z,1.80
2018-06-24T01:40:35.160Z,2.60
2018-06-24T01:43:02.112Z,0.20
2018-06-24T01:45:28.562Z,1.80
2018-06-24T01:47:55.057Z,4.00
2018-06-24T01:50:21.550Z,3.20
2018-06-24T01:52:48.463Z,4.00
2018-06-24T01:55:14.913Z,3.00
2018-06-24T01:57:41.361Z,1.00
2018-06-24T02:00:08.105Z,3.00
2018-06-24T02:02:34.565Z,3.00
2018-06-24T02:05:01.013Z,1.00
2018-06-24T02:07:27.860Z,3.00
2018-06-24T02:09:54.313Z,3.00
2018-06-24T02:12:20.806Z,1.00
2018-06-24T02:14:47.576Z,3.00
2018-06-24T02:17:14.029Z,3.20
2018-06-24T02:22:19.274Z,4.80
2018-06-24T02:24:45.794Z,3.20
2018-06-24T02:27:12.472Z,3.00
2018-06-24T02:29:39.276Z,3.00
2018-06-24T02:32:05.733Z,1.80
2018-06-24T02:34:32.197Z,1.00
2018-06-24T02:36:58.676Z,3.00
2018-06-24T02:39:25.527Z,1.00
2018-06-24T02:41:51.989Z,2.20
2018-06-24T02:44:18.453Z,1.00
2018-06-24T02:46:45.194Z,1.80
2018-06-24T02:49:11.680Z,3.00
2018-06-24T02:51:38.148Z,3.00
2018-06-24T02:54:04.912Z,3.00
2018-06-24T02:56:31.361Z,1.40
2018-06-24T02:58:57.830Z,1.00
2018-06-24T03:01:24.923Z,1.80
2018-06-24T03:03:51.694Z,3.20
2018-06-24T03:06:18.157Z,3.00
2018-06-24T03:08:44.613Z,0.80
2018-06-24T03:11:11.496Z,2.20
2018-06-24T03:13:37.993Z,4.00
2018-06-24T03:16:04.440Z,1.00
2018-06-24T03:18:31.589Z,3.20
2018-06-24T03:20:58.040Z,2.60
2018-06-24T03:23:24.517Z,3.00
2018-06-24T03:25:51.441Z,3.00
2018-06-24T03:28:17.909Z,1.00
2018-06-24T03:30:44.377Z,1.00
2018-06-24T03:33:10.829Z,2.20
2018-06-24T03:35:37.760Z,2.20
2018-06-24T03:38:04.216Z,4.00
2018-06-24T03:40:30.674Z,3.00
2018-06-24T03:42:57.446Z,3.60
2018-06-24T03:45:23.906Z,1.00
2018-06-24T03:47:50.380Z,3.00
2018-06-24T03:50:16.853Z,2.20
2018-06-24T03:52:43.321Z,1.00
2018-06-24T03:55:09.784Z,4.40
2018-06-24T03:57:36.249Z,1.80
2018-06-24T04:00:02.709Z,3.40
2018-06-24T04:02:32.620Z,1.00
2018-06-24T04:04:59.078Z,1.00
2018-06-24T04:07:25.546Z,3.00
2018-06-24T04:09:52.516Z,4.00
2018-06-24T04:12:19.027Z,3.60
2018-06-24T04:14:45.492Z,1.00
2018-06-24T04:17:12.385Z,3.00
2018-06-24T04:19:38.856Z,1.00
2018-06-24T04:22:05.326Z,3.40
2018-06-24T04:24:31.791Z,4.40
2018-06-24T04:26:58.688Z,6.00
2018-06-24T04:29:26.283Z,0.00
2018-06-24T04:31:52.847Z,2.60
2018-06-24T04:34:19.807Z,3.00
2018-06-24T04:36:46.284Z,1.00
2018-06-24T04:39:12.784Z,3.00
2018-06-24T04:41:39.249Z,3.60
2018-06-24T04:44:07.010Z,3.20
2018-06-24T04:46:34.026Z,3.00
2018-06-24T04:49:00.521Z,3.00
2018-06-24T04:51:27.291Z,3.60
2018-06-24T04:53:53.765Z,3.00
2018-06-24T04:56:20.233Z,2.60
2018-06-24T04:58:46.687Z,4.00
2018-06-24T05:01:13.650Z,3.60
2018-06-24T05:03:40.109Z,3.20
2018-06-24T05:06:06.580Z,6.40
2018-06-24T05:08:33.039Z,4.00
2018-06-24T05:10:59.997Z,4.40
2018-06-24T05:13:26.467Z,3.00
2018-06-24T05:15:52.965Z,6.20
2018-06-24T05:18:19.894Z,7.00
2018-06-24T05:20:46.364Z,4.00
2018-06-24T05:23:12.817Z,6.20
2018-06-24T05:25:39.303Z,3.40
2018-06-24T05:28:06.287Z,5.60
2018-06-24T05:30:32.738Z,6.00
2018-06-24T05:32:59.225Z,3.00
2018-06-24T05:35:26.058Z,4.00
2018-06-24T05:37:52.635Z,7.00
2018-06-24T05:40:19.056Z,6.00
2018-06-24T05:42:45.505Z,6.40
2018-06-24T05:45:12.402Z,6.00
2018-06-24T05:47:38.924Z,6.40
2018-06-24T05:50:05.553Z,7.00
2018-06-24T05:52:32.489Z,7.00
2018-06-24T05:54:58.940Z,6.00
2018-06-24T05:57:25.451Z,7.40
2018-06-24T05:59:52.284Z,6.60
2018-06-24T06:02:18.789Z,7.80
2018-06-24T06:04:45.282Z,7.40
2018-06-24T06:07:12.711Z,6.60
2018-06-24T06:09:39.633Z,9.00
2018-06-24T06:12:06.089Z,7.00
2018-06-24T06:14:32.535Z,9.00
2018-06-24T06:16:59.486Z,8.20
2018-06-24T06:19:25.934Z,9.00
2018-06-24T06:21:52.657Z,9.00
2018-06-24T06:24:19.611Z,7.80
2018-06-24T06:26:46.086Z,8.20
2018-06-24T06:29:12.541Z,6.00
2018-06-24T06:31:39.393Z,6.00
2018-06-24T06:34:05.846Z,6.40
2018-06-24T06:36:32.797Z,6.80
2018-06-24T06:38:59.654Z,9.00
2018-06-24T06:41:26.121Z,9.60
2018-06-24T06:43:52.582Z,9.20
2018-06-24T06:46:19.565Z,7.00
2018-06-24T06:48:46.053Z,7.00
2018-06-24T06:51:12.560Z,6.60
2018-06-24T06:53:39.042Z,8.20
2018-06-24T06:56:05.889Z,7.60
2018-06-24T06:58:32.362Z,9.00
2018-06-24T07:00:59.641Z,10.00
2018-06-24T07:03:26.679Z,10.00
2018-06-24T07:05:53.467Z,9.20
2018-06-24T07:08:20.837Z,7.00
2018-06-24T07:10:47.816Z,6.20
2018-06-24T07:13:14.586Z,6.00
2018-06-24T07:15:41.043Z,6.60
2018-06-24T07:18:07.516Z,5.60
2018-06-24T07:20:34.280Z,8.20
2018-06-24T07:23:00.740Z,4.40
2018-06-24T07:25:27.212Z,6.40
2018-06-24T07:27:53.997Z,4.00
2018-06-24T07:30:20.464Z,6.00
2018-06-24T07:32:47.064Z,6.00
2018-06-24T07:35:18.304Z,7.40
2018-06-24T07:37:46.322Z,5.60
2018-06-24T07:40:12.781Z,5.20
2018-06-24T07:42:42.698Z,7.80
2018-06-24T07:45:09.181Z,5.60
2018-06-24T07:47:35.646Z,5.60
2018-06-24T07:50:02.447Z,7.00
2018-06-24T07:52:28.977Z,10.00
2018-06-24T07:54:55.417Z,9.80
2018-06-24T07:57:22.355Z,9.00
2018-06-24T07:59:48.829Z,11.20
2018-06-24T08:02:16.282Z,9.80
2018-06-24T08:04:43.091Z,4.00
2018-06-24T08:07:09.554Z,12.00
2018-06-24T08:09:36.306Z,11.20
2018-06-24T08:12:04.554Z,10.00
2018-06-24T08:14:31.007Z,10.00
2018-06-24T08:16:57.472Z,11.00
2018-06-24T08:19:24.284Z,9.20
2018-06-24T08:21:50.745Z,9.40
2018-06-24T08:24:17.245Z,12.20
2018-06-24T08:26:46.584Z,10.00
2018-06-24T08:29:13.040Z,9.00
2018-06-24T08:31:39.544Z,12.00
2018-06-24T08:34:06.409Z,12.40
2018-06-24T08:36:33.534Z,12.40
2018-06-24T08:39:01.713Z,12.60
2018-06-24T08:44:05.398Z,12.80
2018-06-24T08:46:33.109Z,13.00
2018-06-24T08:48:59.581Z,15.20
2018-06-24T08:51:28.812Z,10.00
2018-06-24T08:53:55.666Z,8.00
2018-06-24T08:56:22.130Z,13.20
2018-06-24T08:58:48.621Z,14.20
2018-06-24T09:01:15.377Z,14.20
2018-06-24T09:06:19.577Z,12.00
2018-06-24T09:08:46.394Z,15.20
2018-06-24T09:11:12.877Z,16.20
2018-06-24T09:13:42.465Z,12.20
2018-06-24T09:16:09.340Z,11.60
2018-06-24T09:18:35.825Z,10.80
2018-06-24T09:21:02.389Z,9.60
2018-06-24T09:23:29.261Z,10.00
2018-06-24T09:25:55.770Z,10.80
2018-06-24T09:28:25.158Z,10.00
2018-06-24T09:30:52.203Z,9.00
2018-06-24T09:33:19.339Z,13.40
2018-06-24T09:35:47.339Z,7.80
2018-06-24T09:38:15.232Z,7.80
2018-06-24T09:40:41.680Z,10.40
2018-06-24T09:43:08.533Z,7.00
2018-06-24T09:45:35.421Z,7.40
2018-06-24T09:48:02.549Z,6.00
2018-06-24T09:50:30.522Z,5.20
2018-06-24T09:52:58.253Z,4.00
2018-06-24T09:55:24.732Z,5.60
2018-06-24T10:00:34.029Z,8.80
2018-06-24T10:03:01.690Z,9.40
2018-06-24T10:05:28.250Z,6.00
2018-06-24T10:07:55.217Z,6.00
2018-06-24T10:10:21.675Z,4.00
2018-06-24T10:12:48.248Z,6.20
2018-06-24T10:15:17.339Z,4.80
2018-06-24T10:17:44.584Z,2.60
2018-06-24T10:20:12.603Z,6.00
2018-06-24T10:22:39.233Z,4.00
2018-06-24T10:25:05.842Z,6.00
2018-06-24T10:27:37.451Z,6.80
2018-06-24T10:30:05.219Z,6.80
2018-06-24T10:32:31.719Z,5.20
2018-06-24T10:34:59.729Z,6.00
2018-06-24T10:37:26.224Z,6.80
2018-06-24T10:39:52.681Z,6.00
2018-06-24T10:42:19.540Z,6.00
2018-06-24T10:44:50.371Z,4.00
2018-06-24T10:47:17.649Z,6.80
2018-06-24T10:49:46.196Z,7.00
2018-06-24T10:52:14.503Z,6.00
2018-06-24T10:54:40.976Z,4.80
2018-06-24T10:57:08.416Z,5.60
2018-06-24T11:02:07.582Z,4.40
2018-06-24T11:04:34.362Z,5.60
2018-06-24T11:07:04.574Z,4.00
2018-06-24T11:09:31.640Z,3.00
2018-06-24T11:11:59.435Z,4.00
2018-06-24T11:14:27.093Z,5.20
2018-06-24T11:16:56.327Z,3.00
2018-06-24T11:19:24.714Z,4.40
2018-06-24T11:21:51.304Z,6.00
2018-06-24T11:24:17.824Z,5.60
2018-06-24T11:26:45.421Z,4.00
2018-06-24T11:29:11.929Z,6.00
2018-06-24T11:31:38.890Z,4.00
2018-06-24T11:34:06.322Z,5.20
2018-06-24T11:36:32.853Z,4.00
2018-06-24T11:39:00.393Z,4.00
2018-06-24T11:41:29.440Z,6.00
2018-06-24T11:43:56.440Z,3.80
2018-06-24T11:46:23.011Z,6.00
2018-06-24T11:48:50.725Z,4.00
2018-06-24T11:51:17.255Z,5.20
2018-06-24T11:53:44.445Z,6.00
2018-06-24T11:56:11.249Z,6.00
2018-06-24T11:58:38.515Z,7.00
2018-06-24T12:01:05.234Z,6.40
2018-06-24T12:03:32.076Z,6.00
2018-06-24T12:05:58.689Z,9.00
2018-06-24T12:08:27.638Z,7.00
2018-06-24T12:10:55.386Z,7.80
2018-06-24T12:13:21.957Z,8.60
2018-06-24T12:15:50.010Z,7.40
2018-06-24T12:18:16.833Z,7.00
2018-06-24T12:20:44.276Z,8.20
2018-06-24T12:23:11.958Z,8.20
2018-06-24T12:25:38.884Z,6.00
2018-06-24T12:28:08.145Z,9.00
2018-06-24T12:30:35.282Z,7.80
2018-06-24T12:35:33.450Z,1.00
2018-06-24T12:38:02.751Z,6.20
2018-06-24T12:40:29.678Z,6.20
2018-06-24T12:42:56.353Z,6.00
2018-06-24T12:45:24.337Z,6.20
2018-06-24T12:47:52.652Z,6.00
2018-06-24T12:50:19.220Z,6.40
2018-06-24T12:52:46.385Z,7.00
2018-06-24T12:55:17.212Z,7.00
2018-06-24T12:57:43.791Z,7.00
2018-06-24T13:00:10.950Z,6.80
2018-06-24T13:02:39.528Z,7.60
2018-06-24T13:05:07.604Z,6.00
2018-06-24T13:07:34.325Z,9.40
2018-06-24T13:10:02.622Z,6.80
2018-06-24T13:12:29.852Z,5.60
2018-06-24T13:14:57.128Z,10.40
2018-06-24T13:17:24.657Z,7.00
2018-06-24T13:19:51.694Z,7.00
2018-06-24T13:22:18.174Z,6.20
2018-06-24T13:24:45.615Z,9.00
2018-06-24T13:27:16.349Z,7.40
2018-06-24T13:29:43.113Z,8.60
2018-06-24T13:32:14.108Z,9.00
2018-06-24T13:34:41.282Z,12.00
2018-06-24T13:37:07.935Z,9.60
2018-06-24T13:42:06.514Z,9.00
2018-06-24T13:44:35.737Z,10.00
2018-06-24T13:49:36.317Z,7.00
2018-06-24T13:52:03.177Z,8.20
2018-06-24T13:54:29.833Z,9.60
2018-06-24T13:56:56.681Z,8.20
2018-06-24T13:59:23.655Z,9.00
2018-06-24T14:01:50.169Z,13.60
2018-06-24T14:04:18.645Z,10.00
2018-06-24T14:06:49.371Z,12.20
2018-06-24T14:09:16.653Z,9.60
2018-06-24T14:11:44.169Z,6.60
2018-06-24T14:14:10.723Z,10.00
2018-06-24T14:16:38.154Z,9.80
2018-06-24T14:19:05.400Z,6.00
2018-06-24T14:21:32.794Z,8.60
2018-06-24T14:24:02.571Z,14.20
2018-06-24T14:26:32.091Z,12.40
2018-06-24T14:28:59.757Z,11.20
2018-06-24T14:33:58.490Z,12.40
2018-06-24T14:36:24.993Z,12.00
2018-06-24T14:38:51.624Z,13.00
2018-06-24T14:41:19.287Z,9.00
2018-06-24T14:43:46.412Z,9.80
2018-06-24T14:46:13.069Z,11.60
2018-06-24T14:48:40.632Z,7.60
2018-06-24T14:51:07.296Z,12.00
2018-06-24T14:53:34.526Z,10.80
2018-06-24T14:56:01.314Z,10.00
2018-06-24T14:58:27.895Z,7.00
2018-06-24T15:00:54.364Z,9.80
2018-06-24T15:03:21.264Z,5.20
2018-06-24T15:05:48.628Z,10.00
2018-06-24T15:08:15.104Z,9.00
2018-06-24T15:10:42.240Z,9.60
2018-06-24T15:13:08.695Z,12.20
2018-06-24T15:15:35.378Z,9.40
2018-06-24T15:18:02.308Z,12.80
2018-06-24T15:20:28.764Z,12.00
2018-06-24T15:22:55.233Z,12.00
2018-06-24T15:25:23.471Z,9.60
2018-06-24T15:27:50.813Z,9.40
2018-06-24T15:30:17.885Z,10.00
2018-06-24T15:32:44.673Z,12.00
2018-06-24T15:35:12.877Z,12.00
2018-06-24T15:37:39.373Z,14.60
2018-06-24T15:40:06.140Z,12.20
2018-06-24T15:42:33.300Z,12.40
2018-06-24T15:44:59.755Z,8.20
2018-06-24T15:47:27.389Z,9.20
2018-06-24T15:49:53.871Z,12.00
2018-06-24T15:52:20.373Z,12.00
2018-06-24T15:54:47.137Z,11.20
2018-06-24T15:57:13.603Z,15.20
2018-06-24T15:59:42.034Z,12.20
2018-06-24T16:02:09.258Z,15.80
2018-06-24T16:04:36.023Z,11.60
2018-06-24T16:07:02.485Z,12.00
2018-06-24T16:09:29.230Z,13.40
2018-06-24T16:11:56.381Z,14.00
2018-06-24T16:14:22.845Z,12.20
2018-06-24T16:16:52.128Z,10.00
2018-06-24T16:19:18.585Z,12.80
2018-06-24T16:21:46.569Z,9.40
2018-06-24T16:24:14.825Z,9.00
2018-06-24T16:26:42.206Z,21.40
2018-06-24T16:29:11.291Z,8.60
2018-06-24T16:31:37.740Z,8.20
2018-06-24T16:34:04.209Z,11.20
2018-06-24T16:36:31.850Z,7.60
2018-06-24T16:38:58.305Z,8.20
2018-06-24T16:41:28.776Z,9.40
2018-06-24T16:43:55.524Z,11.60
2018-06-24T16:46:23.830Z,10.40
2018-06-24T16:48:50.281Z,12.00
2018-06-24T16:51:19.105Z,11.20
2018-06-24T16:53:46.233Z,10.60
2018-06-24T16:56:12.708Z,11.60
2018-06-24T16:58:40.268Z,10.80
2018-06-24T17:01:07.130Z,13.00
2018-06-24T17:03:34.138Z,10.80
2018-06-24T17:06:00.895Z,9.40
2018-06-24T17:08:27.371Z,10.40
2018-06-24T17:10:53.849Z,7.00
2018-06-24T17:13:20.644Z,10.40
2018-06-24T17:15:47.123Z,9.80
2018-06-24T17:18:13.609Z,10.00
2018-06-24T17:20:40.385Z,11.20
2018-06-24T17:23:06.844Z,10.00
2018-06-24T17:25:33.432Z,11.60
2018-06-24T17:28:02.076Z,12.20
2018-06-24T17:30:28.571Z,7.80
2018-06-24T17:32:55.545Z,8.60
2018-06-24T17:35:23.678Z,8.60
2018-06-24T17:37:50.262Z,8.40
2018-06-24T17:40:16.764Z,10.20
2018-06-24T17:42:44.345Z,9.00
2018-06-24T17:45:10.818Z,8.20
2018-06-24T17:47:38.209Z,9.00
2018-06-24T17:50:05.925Z,10.20
2018-06-24T17:52:32.384Z,10.00
2018-06-24T17:55:02.247Z,11.60
2018-06-24T17:57:29.024Z,10.40
2018-06-24T17:59:55.497Z,10.60
2018-06-24T18:02:21.960Z,10.00
2018-06-24T18:04:48.714Z,10.20
2018-06-24T18:07:17.305Z,13.40
2018-06-24T18:09:43.763Z,10.40
2018-06-24T18:12:11.171Z,17.60
2018-06-24T18:14:38.231Z,11.60
2018-06-24T18:17:05.464Z,9.20
2018-06-24T18:19:32.215Z,10.80
2018-06-24T18:21:58.697Z,10.40
2018-06-24T18:24:26.265Z,10.80
2018-06-24T18:26:55.896Z,11.20
2018-06-24T18:29:22.401Z,13.40
2018-06-24T18:31:48.852Z,13.20
2018-06-24T18:34:17.338Z,12.60
2018-06-24T18:36:44.853Z,10.00
2018-06-24T18:39:11.369Z,16.00
2018-06-24T18:41:40.082Z,2.60
2018-06-24T18:46:39.424Z,9.40
2018-06-24T18:49:06.556Z,12.20
2018-06-24T18:51:34.549Z,10.40
2018-06-24T18:54:01.748Z,15.20
2018-06-24T18:56:30.678Z,10.40
2018-06-24T18:58:58.472Z,2.20
2018-06-24T19:01:25.333Z,9.40
2018-06-24T19:03:53.994Z,12.60
2018-06-24T19:06:24.317Z,12.20
2018-06-24T19:11:22.679Z,12.00
2018-06-24T19:13:49.477Z,15.40
2018-06-24T19:16:17.002Z,12.60
2018-06-24T19:18:43.486Z,10.80
2018-06-24T19:21:10.400Z,15.80
2018-06-24T19:26:11.501Z,12.20
2018-06-24T19:31:15.254Z,15.20
2018-06-24T19:33:42.656Z,10.00
2018-06-24T19:36:11.423Z,10.40
2018-06-24T19:38:37.924Z,12.00
2018-06-24T19:41:06.716Z,12.00
2018-06-24T19:43:36.716Z,12.00
2018-06-24T19:46:03.548Z,11.60
2018-06-24T19:48:32.487Z,12.00
2018-06-24T19:50:59.598Z,13.40
2018-06-24T19:53:26.090Z,19.40
2018-06-24T19:55:52.698Z,14.20
2018-06-24T19:58:19.814Z,11.20
2018-06-24T20:00:46.351Z,15.00
2018-06-24T20:03:15.857Z,11.60
2018-06-24T20:05:42.781Z,14.60
2018-06-24T20:08:09.331Z,7.00
2018-06-24T20:10:37.088Z,15.60
2018-06-24T20:13:06.741Z,13.40
2018-06-24T20:15:35.741Z,13.00
2018-06-24T20:18:02.327Z,11.60
2018-06-24T20:20:29.277Z,13.00
2018-06-24T20:22:56.723Z,13.00
2018-06-24T20:25:26.285Z,16.40
2018-06-24T20:27:53.073Z,12.80
2018-06-24T20:30:19.841Z,12.60
2018-06-24T20:32:48.756Z,12.40
2018-06-24T20:35:17.686Z,12.60
2018-06-24T20:37:45.820Z,10.20
2018-06-24T20:40:13.813Z,13.60
2018-06-24T20:42:40.670Z,15.00
2018-06-24T20:45:10.969Z,12.00
2018-06-24T20:47:38.762Z,12.40
2018-06-24T20:50:06.321Z,12.00
2018-06-24T20:52:34.092Z,10.80
2018-06-24T20:55:00.577Z,8.00
2018-06-24T20:57:27.350Z,11.00
2018-06-24T20:59:53.868Z,11.20
2018-06-24T21:02:20.423Z,10.80
2018-06-24T21:04:47.360Z,10.40
2018-06-24T21:07:14.630Z,19.20
2018-06-24T21:09:41.152Z,10.00
2018-06-24T21:14:42.126Z,10.00
2018-06-24T21:17:08.596Z,12.40
2018-06-24T21:19:35.504Z,9.80
2018-06-24T21:22:06.252Z,9.20
2018-06-24T21:24:33.554Z,9.00
2018-06-24T21:27:01.336Z,7.00
2018-06-24T21:29:27.967Z,12.20
2018-06-24T21:31:54.431Z,6.40
2018-06-24T21:34:21.369Z,12.40
2018-06-24T21:36:50.910Z,10.00
2018-06-24T21:39:17.353Z,6.20
2018-06-24T21:41:44.100Z,6.40
2018-06-24T21:44:10.555Z,9.00
2018-06-24T21:46:37.612Z,4.40
2018-06-24T21:49:04.517Z,7.20
2018-06-24T21:51:31.589Z,4.80
2018-06-24T21:53:59.912Z,6.60
2018-06-24T21:56:26.369Z,4.00
2018-06-24T21:58:56.130Z,3.00
2018-06-24T22:01:23.388Z,3.00
2018-06-24T22:03:49.893Z,3.00
2018-06-24T22:06:18.470Z,3.80
2018-06-24T22:08:46.154Z,2.20
2018-06-24T22:11:15.469Z,3.40
2018-06-24T22:13:43.423Z,0.00
2018-06-24T22:16:10.349Z,3.00
2018-06-24T22:18:36.895Z,2.20
2018-06-24T22:21:03.776Z,6.80
2018-06-24T22:23:30.468Z,6.60
2018-06-24T22:25:56.968Z,3.80
2018-06-24T22:28:25.080Z,4.00
2018-06-24T22:30:51.576Z,1.80
2018-06-24T22:33:18.956Z,1.00
2018-06-24T22:35:45.500Z,3.00
2018-06-24T22:38:14.385Z,3.00
2018-06-24T22:40:40.905Z,4.40
2018-06-24T22:43:12.653Z,3.20
2018-06-24T22:45:40.623Z,7.00
2018-06-24T22:48:07.500Z,8.60
2018-06-24T22:50:40.289Z,7.60
2018-06-24T22:53:07.107Z,9.80
2018-06-24T22:55:36.051Z,11.20
2018-06-24T22:58:03.660Z,11.20
2018-06-24T23:00:31.106Z,10.40
2018-06-24T23:02:57.885Z,13.00
2018-06-24T23:05:24.580Z,14.00
2018-06-24T23:07:51.949Z,7.00
2018-06-24T23:10:18.789Z,11.20
2018-06-24T23:12:46.288Z,16.40
2018-06-24T23:15:12.899Z,14.20
2018-06-24T23:17:41.447Z,9.20
2018-06-24T23:20:09.229Z,9.60
2018-06-24T23:22:40.420Z,6.20
2018-06-24T23:25:07.524Z,7.80
2018-06-24T23:27:33.993Z,9.80
2018-06-24T23:30:00.870Z,9.20
2018-06-24T23:32:27.332Z,3.20
2018-06-24T23:34:53.785Z,6.60
2018-06-24T23:37:20.584Z,5.20
2018-06-24T23:39:47.662Z,5.20
2018-06-24T23:42:14.193Z,9.00
2018-06-24T23:44:41.097Z,6.20
2018-06-24T23:47:07.575Z,7.00
2018-06-24T23:49:34.021Z,8.60
2018-06-24T23:52:02.058Z,5.60
2018-06-24T23:54:28.536Z,6.00
2018-06-24T23:56:55.040Z,7.80
2018-06-24T23:59:21.854Z,6.00
